sensor_id;sensor_type;location;lat;lon;timestamp;temperature;humidity
20376;DHT22;10347;51.828;6.466;2022-07-18T00:00:10;22.10;81.40
20376;DHT22;10347;51.828;6.466;2022-07-18T00:02:35;22.10;81.90
20376;DHT22;10347;51.828;6.466;2022-07-18T00:05:02;22.10;82.10
20376;DHT22;10347;51.828;6.466;2022-07-18T00:07:27;22.00;82.40
20376;DHT22;10347;51.828;6.466;2022-07-18T00:09:53;22.00;82.80
20376;DHT22;10347;51.828;6.466;2022-07-18T00:12:18;22.00;83.00
20376;DHT22;10347;51.828;6.466;2022-07-18T00:14:44;21.90;83.20
20376;DHT22;10347;51.828;6.466;2022-07-18T00:17:10;21.90;83.00
20376;DHT22;10347;51.828;6.466;2022-07-18T00:19:36;21.90;83.20
20376;DHT22;10347;51.828;6.466;2022-07-18T00:22:02;21.80;83.40
20376;DHT22;10347;51.828;6.466;2022-07-18T00:24:28;21.70;83.90
20376;DHT22;10347;51.828;6.466;2022-07-18T00:26:54;21.70;84.30
20376;DHT22;10347;51.828;6.466;2022-07-18T00:29:19;21.70;84.50
20376;DHT22;10347;51.828;6.466;2022-07-18T00:31:45;21.60;84.70
20376;DHT22;10347;51.828;6.466;2022-07-18T00:34:11;21.60;85.10
20376;DHT22;10347;51.828;6.466;2022-07-18T00:36:36;21.60;85.30
20376;DHT22;10347;51.828;6.466;2022-07-18T00:39:03;21.60;85.90
20376;DHT22;10347;51.828;6.466;2022-07-18T00:41:29;21.50;86.30
20376;DHT22;10347;51.828;6.466;2022-07-18T00:43:55;21.50;86.60
20376;DHT22;10347;51.828;6.466;2022-07-18T00:46:23;21.40;86.60
20376;DHT22;10347;51.828;6.466;2022-07-18T00:48:49;21.40;86.80
20376;DHT22;10347;51.828;6.466;2022-07-18T00:51:14;21.30;87.00
20376;DHT22;10347;51.828;6.466;2022-07-18T00:53:42;21.30;87.20
20376;DHT22;10347;51.828;6.466;2022-07-18T00:56:08;21.30;87.40
20376;DHT22;10347;51.828;6.466;2022-07-18T00:58:34;21.30;87.40
20376;DHT22;10347;51.828;6.466;2022-07-18T01:01:00;21.20;87.40
20376;DHT22;10347;51.828;6.466;2022-07-18T01:03:44;21.20;87.60
20376;DHT22;10347;51.828;6.466;2022-07-18T01:06:10;21.20;87.70
20376;DHT22;10347;51.828;6.466;2022-07-18T01:08:35;21.20;87.80
20376;DHT22;10347;51.828;6.466;2022-07-18T01:11:03;21.20;87.90
20376;DHT22;10347;51.828;6.466;2022-07-18T01:13:29;21.10;87.80
20376;DHT22;10347;51.828;6.466;2022-07-18T01:15:55;21.10;88.00
20376;DHT22;10347;51.828;6.466;2022-07-18T01:18:21;21.00;88.10
20376;DHT22;10347;51.828;6.466;2022-07-18T01:20:46;21.00;88.30
20376;DHT22;10347;51.828;6.466;2022-07-18T01:23:12;21.00;88.30
20376;DHT22;10347;51.828;6.466;2022-07-18T01:25:37;21.00;88.50
20376;DHT22;10347;51.828;6.466;2022-07-18T01:28:03;20.90;88.60
20376;DHT22;10347;51.828;6.466;2022-07-18T01:30:29;20.90;88.90
20376;DHT22;10347;51.828;6.466;2022-07-18T01:33:00;20.80;89.00
20376;DHT22;10347;51.828;6.466;2022-07-18T01:35:28;20.80;89.50
20376;DHT22;10347;51.828;6.466;2022-07-18T01:37:56;20.80;89.40
20376;DHT22;10347;51.828;6.466;2022-07-18T01:40:22;20.80;89.50
20376;DHT22;10347;51.828;6.466;2022-07-18T01:42:48;20.80;89.80
20376;DHT22;10347;51.828;6.466;2022-07-18T01:45:15;20.80;90.00
20376;DHT22;10347;51.828;6.466;2022-07-18T01:47:41;20.70;90.00
20376;DHT22;10347;51.828;6.466;2022-07-18T01:50:08;20.70;90.10
20376;DHT22;10347;51.828;6.466;2022-07-18T01:52:34;20.60;90.30
20376;DHT22;10347;51.828;6.466;2022-07-18T01:55:00;20.60;90.30
20376;DHT22;10347;51.828;6.466;2022-07-18T01:57:26;20.60;90.50
20376;DHT22;10347;51.828;6.466;2022-07-18T01:59:52;20.50;90.50
20376;DHT22;10347;51.828;6.466;2022-07-18T02:02:17;20.50;90.60
20376;DHT22;10347;51.828;6.466;2022-07-18T02:04:43;20.50;90.70
20376;DHT22;10347;51.828;6.466;2022-07-18T02:07:37;20.40;90.90
20376;DHT22;10347;51.828;6.466;2022-07-18T02:10:17;20.40;91.40
20376;DHT22;10347;51.828;6.466;2022-07-18T02:12:43;20.40;91.60
20376;DHT22;10347;51.828;6.466;2022-07-18T02:15:11;20.30;91.30
20376;DHT22;10347;51.828;6.466;2022-07-18T02:17:37;20.30;91.70
20376;DHT22;10347;51.828;6.466;2022-07-18T02:20:05;20.30;91.80
20376;DHT22;10347;51.828;6.466;2022-07-18T02:22:31;20.30;92.20
20376;DHT22;10347;51.828;6.466;2022-07-18T02:24:56;20.20;92.30
20376;DHT22;10347;51.828;6.466;2022-07-18T02:27:22;20.20;92.50
20376;DHT22;10347;51.828;6.466;2022-07-18T02:29:48;20.20;92.50
20376;DHT22;10347;51.828;6.466;2022-07-18T02:32:13;20.10;92.50
20376;DHT22;10347;51.828;6.466;2022-07-18T02:34:39;20.10;92.80
20376;DHT22;10347;51.828;6.466;2022-07-18T02:37:05;20.10;93.10
20376;DHT22;10347;51.828;6.466;2022-07-18T02:39:30;20.00;93.30
20376;DHT22;10347;51.828;6.466;2022-07-18T02:41:56;20.00;93.30
20376;DHT22;10347;51.828;6.466;2022-07-18T02:44:22;20.00;93.60
20376;DHT22;10347;51.828;6.466;2022-07-18T02:46:48;19.90;93.80
20376;DHT22;10347;51.828;6.466;2022-07-18T02:49:14;19.90;93.90
20376;DHT22;10347;51.828;6.466;2022-07-18T02:52:02;19.90;93.90
20376;DHT22;10347;51.828;6.466;2022-07-18T02:54:29;19.80;94.10
20376;DHT22;10347;51.828;6.466;2022-07-18T02:56:55;19.80;93.80
20376;DHT22;10347;51.828;6.466;2022-07-18T02:59:21;19.70;93.90
20376;DHT22;10347;51.828;6.466;2022-07-18T03:01:46;19.70;94.00
20376;DHT22;10347;51.828;6.466;2022-07-18T03:04:14;19.70;94.10
20376;DHT22;10347;51.828;6.466;2022-07-18T03:06:40;19.60;94.20
20376;DHT22;10347;51.828;6.466;2022-07-18T03:09:06;19.60;94.30
20376;DHT22;10347;51.828;6.466;2022-07-18T03:11:31;19.50;94.40
20376;DHT22;10347;51.828;6.466;2022-07-18T03:13:57;19.60;94.60
20376;DHT22;10347;51.828;6.466;2022-07-18T03:16:23;19.50;94.60
20376;DHT22;10347;51.828;6.466;2022-07-18T03:18:48;19.50;94.70
20376;DHT22;10347;51.828;6.466;2022-07-18T03:21:14;19.50;94.80
20376;DHT22;10347;51.828;6.466;2022-07-18T03:23:39;19.50;95.00
20376;DHT22;10347;51.828;6.466;2022-07-18T03:26:05;19.50;95.10
20376;DHT22;10347;51.828;6.466;2022-07-18T03:28:31;19.50;95.20
20376;DHT22;10347;51.828;6.466;2022-07-18T03:30:56;19.40;95.20
20376;DHT22;10347;51.828;6.466;2022-07-18T03:33:24;19.30;95.40
20376;DHT22;10347;51.828;6.466;2022-07-18T03:35:50;19.30;95.50
20376;DHT22;10347;51.828;6.466;2022-07-18T03:38:16;19.20;95.50
20376;DHT22;10347;51.828;6.466;2022-07-18T03:40:41;19.20;95.70
20376;DHT22;10347;51.828;6.466;2022-07-18T03:43:07;19.20;95.90
20376;DHT22;10347;51.828;6.466;2022-07-18T03:45:32;19.20;95.90
20376;DHT22;10347;51.828;6.466;2022-07-18T03:47:58;19.10;96.10
20376;DHT22;10347;51.828;6.466;2022-07-18T03:50:24;19.10;96.20
20376;DHT22;10347;51.828;6.466;2022-07-18T03:52:49;19.10;96.30
20376;DHT22;10347;51.828;6.466;2022-07-18T03:55:15;19.10;96.40
20376;DHT22;10347;51.828;6.466;2022-07-18T03:57:41;19.00;96.50
20376;DHT22;10347;51.828;6.466;2022-07-18T04:00:07;19.00;96.60
20376;DHT22;10347;51.828;6.466;2022-07-18T04:02:41;19.00;96.70
20376;DHT22;10347;51.828;6.466;2022-07-18T04:05:07;19.00;97.00
20376;DHT22;10347;51.828;6.466;2022-07-18T04:07:33;19.00;97.00
20376;DHT22;10347;51.828;6.466;2022-07-18T04:09:59;19.00;97.20
20376;DHT22;10347;51.828;6.466;2022-07-18T04:12:25;19.00;97.30
20376;DHT22;10347;51.828;6.466;2022-07-18T04:14:50;19.00;97.50
20376;DHT22;10347;51.828;6.466;2022-07-18T04:17:16;18.90;97.60
20376;DHT22;10347;51.828;6.466;2022-07-18T04:19:42;18.90;97.70
20376;DHT22;10347;51.828;6.466;2022-07-18T04:22:07;18.90;97.90
20376;DHT22;10347;51.828;6.466;2022-07-18T04:24:33;18.90;98.00
20376;DHT22;10347;51.828;6.466;2022-07-18T04:26:59;18.80;98.10
20376;DHT22;10347;51.828;6.466;2022-07-18T04:29:25;18.80;98.20
20376;DHT22;10347;51.828;6.466;2022-07-18T04:31:50;18.80;98.30
20376;DHT22;10347;51.828;6.466;2022-07-18T04:34:16;18.70;98.30
20376;DHT22;10347;51.828;6.466;2022-07-18T04:36:41;18.70;98.40
20376;DHT22;10347;51.828;6.466;2022-07-18T04:39:07;18.60;98.60
20376;DHT22;10347;51.828;6.466;2022-07-18T04:41:33;18.60;98.70
20376;DHT22;10347;51.828;6.466;2022-07-18T04:43:59;18.60;98.80
20376;DHT22;10347;51.828;6.466;2022-07-18T04:46:24;18.60;98.90
20376;DHT22;10347;51.828;6.466;2022-07-18T04:48:50;18.60;98.90
20376;DHT22;10347;51.828;6.466;2022-07-18T04:51:15;18.60;99.00
20376;DHT22;10347;51.828;6.466;2022-07-18T04:53:41;18.60;99.10
20376;DHT22;10347;51.828;6.466;2022-07-18T04:56:06;18.60;99.10
20376;DHT22;10347;51.828;6.466;2022-07-18T04:58:32;18.60;99.10
20376;DHT22;10347;51.828;6.466;2022-07-18T05:00:58;18.60;99.10
20376;DHT22;10347;51.828;6.466;2022-07-18T05:03:23;18.60;99.20
20376;DHT22;10347;51.828;6.466;2022-07-18T05:05:49;18.60;99.10
20376;DHT22;10347;51.828;6.466;2022-07-18T05:08:15;18.70;99.00
20376;DHT22;10347;51.828;6.466;2022-07-18T05:10:40;18.70;98.80
20376;DHT22;10347;51.828;6.466;2022-07-18T05:13:06;18.70;98.80
20376;DHT22;10347;51.828;6.466;2022-07-18T05:15:32;18.70;98.60
20376;DHT22;10347;51.828;6.466;2022-07-18T05:17:57;18.80;98.50
20376;DHT22;10347;51.828;6.466;2022-07-18T05:20:25;18.80;98.30
20376;DHT22;10347;51.828;6.466;2022-07-18T05:22:51;18.80;98.00
20376;DHT22;10347;51.828;6.466;2022-07-18T05:25:17;18.80;97.80
20376;DHT22;10347;51.828;6.466;2022-07-18T05:27:43;18.90;97.60
20376;DHT22;10347;51.828;6.466;2022-07-18T05:30:11;18.90;97.50
20376;DHT22;10347;51.828;6.466;2022-07-18T05:32:39;18.90;97.40
20376;DHT22;10347;51.828;6.466;2022-07-18T05:35:05;19.00;97.40
20376;DHT22;10347;51.828;6.466;2022-07-18T05:37:31;19.00;97.40
20376;DHT22;10347;51.828;6.466;2022-07-18T05:39:57;19.00;97.40
20376;DHT22;10347;51.828;6.466;2022-07-18T05:42:23;19.00;97.50
20376;DHT22;10347;51.828;6.466;2022-07-18T05:44:48;19.00;97.50
20376;DHT22;10347;51.828;6.466;2022-07-18T05:47:14;19.10;97.60
20376;DHT22;10347;51.828;6.466;2022-07-18T05:49:40;19.10;97.70
20376;DHT22;10347;51.828;6.466;2022-07-18T05:52:06;19.10;97.80
20376;DHT22;10347;51.828;6.466;2022-07-18T05:54:32;19.20;98.00
20376;DHT22;10347;51.828;6.466;2022-07-18T05:56:58;19.30;98.20
20376;DHT22;10347;51.828;6.466;2022-07-18T05:59:23;19.30;98.10
20376;DHT22;10347;51.828;6.466;2022-07-18T06:01:49;19.40;98.30
20376;DHT22;10347;51.828;6.466;2022-07-18T06:04:15;19.40;98.30
20376;DHT22;10347;51.828;6.466;2022-07-18T06:06:41;19.40;98.40
20376;DHT22;10347;51.828;6.466;2022-07-18T06:09:07;19.50;98.50
20376;DHT22;10347;51.828;6.466;2022-07-18T06:11:34;19.50;98.60
20376;DHT22;10347;51.828;6.466;2022-07-18T06:13:59;19.50;98.70
20376;DHT22;10347;51.828;6.466;2022-07-18T06:16:28;19.60;98.70
20376;DHT22;10347;51.828;6.466;2022-07-18T06:18:54;19.60;98.80
20376;DHT22;10347;51.828;6.466;2022-07-18T06:21:19;19.70;98.90
20376;DHT22;10347;51.828;6.466;2022-07-18T06:23:45;19.60;98.90
20376;DHT22;10347;51.828;6.466;2022-07-18T06:26:11;19.70;99.00
20376;DHT22;10347;51.828;6.466;2022-07-18T06:28:36;19.80;99.00
20376;DHT22;10347;51.828;6.466;2022-07-18T06:31:02;19.80;99.10
20376;DHT22;10347;51.828;6.466;2022-07-18T06:33:27;19.90;99.10
20376;DHT22;10347;51.828;6.466;2022-07-18T06:35:53;19.90;99.00
20376;DHT22;10347;51.828;6.466;2022-07-18T06:38:18;19.90;99.10
20376;DHT22;10347;51.828;6.466;2022-07-18T06:40:44;20.00;99.00
20376;DHT22;10347;51.828;6.466;2022-07-18T06:43:10;20.00;99.10
20376;DHT22;10347;51.828;6.466;2022-07-18T06:45:36;20.10;99.10
20376;DHT22;10347;51.828;6.466;2022-07-18T06:48:02;20.10;99.20
20376;DHT22;10347;51.828;6.466;2022-07-18T06:50:28;20.10;99.20
20376;DHT22;10347;51.828;6.466;2022-07-18T06:52:54;20.20;99.10
20376;DHT22;10347;51.828;6.466;2022-07-18T06:55:19;20.30;98.90
20376;DHT22;10347;51.828;6.466;2022-07-18T06:57:45;20.40;98.90
20376;DHT22;10347;51.828;6.466;2022-07-18T07:00:12;20.50;98.80
20376;DHT22;10347;51.828;6.466;2022-07-18T07:02:46;20.60;98.70
20376;DHT22;10347;51.828;6.466;2022-07-18T07:05:14;20.60;98.50
20376;DHT22;10347;51.828;6.466;2022-07-18T07:07:40;20.70;98.50
20376;DHT22;10347;51.828;6.466;2022-07-18T07:10:07;20.70;98.50
20376;DHT22;10347;51.828;6.466;2022-07-18T07:12:47;20.80;98.90
20376;DHT22;10347;51.828;6.466;2022-07-18T07:15:13;20.80;97.90
20376;DHT22;10347;51.828;6.466;2022-07-18T07:17:39;20.90;97.80
20376;DHT22;10347;51.828;6.466;2022-07-18T07:20:05;21.00;97.40
20376;DHT22;10347;51.828;6.466;2022-07-18T07:22:32;21.10;97.10
20376;DHT22;10347;51.828;6.466;2022-07-18T07:25:05;21.20;97.00
20376;DHT22;10347;51.828;6.466;2022-07-18T07:27:31;21.30;96.90
20376;DHT22;10347;51.828;6.466;2022-07-18T07:29:56;21.30;96.70
20376;DHT22;10347;51.828;6.466;2022-07-18T07:32:22;21.40;96.50
20376;DHT22;10347;51.828;6.466;2022-07-18T07:34:47;21.50;96.60
20376;DHT22;10347;51.828;6.466;2022-07-18T07:37:13;21.60;96.60
20376;DHT22;10347;51.828;6.466;2022-07-18T07:39:39;21.70;96.50
20376;DHT22;10347;51.828;6.466;2022-07-18T07:42:04;21.70;96.20
20376;DHT22;10347;51.828;6.466;2022-07-18T07:44:30;21.80;96.50
20376;DHT22;10347;51.828;6.466;2022-07-18T07:46:55;21.90;96.20
20376;DHT22;10347;51.828;6.466;2022-07-18T07:49:21;22.00;96.00
20376;DHT22;10347;51.828;6.466;2022-07-18T07:51:46;22.00;95.80
20376;DHT22;10347;51.828;6.466;2022-07-18T07:54:12;22.20;95.80
20376;DHT22;10347;51.828;6.466;2022-07-18T07:56:37;22.30;95.60
20376;DHT22;10347;51.828;6.466;2022-07-18T07:59:03;22.30;95.50
20376;DHT22;10347;51.828;6.466;2022-07-18T08:01:28;22.40;95.50
20376;DHT22;10347;51.828;6.466;2022-07-18T08:03:55;22.50;95.30
20376;DHT22;10347;51.828;6.466;2022-07-18T08:06:21;22.60;95.10
20376;DHT22;10347;51.828;6.466;2022-07-18T08:08:46;22.70;94.90
20376;DHT22;10347;51.828;6.466;2022-07-18T08:11:12;22.80;94.70
20376;DHT22;10347;51.828;6.466;2022-07-18T08:13:37;22.90;94.60
20376;DHT22;10347;51.828;6.466;2022-07-18T08:16:03;23.00;94.60
20376;DHT22;10347;51.828;6.466;2022-07-18T08:18:29;23.10;94.60
20376;DHT22;10347;51.828;6.466;2022-07-18T08:20:54;23.20;94.30
20376;DHT22;10347;51.828;6.466;2022-07-18T08:23:20;23.20;94.00
20376;DHT22;10347;51.828;6.466;2022-07-18T08:25:46;23.30;94.00
20376;DHT22;10347;51.828;6.466;2022-07-18T08:28:13;23.40;94.10
20376;DHT22;10347;51.828;6.466;2022-07-18T08:30:39;23.50;93.80
20376;DHT22;10347;51.828;6.466;2022-07-18T08:33:06;23.60;93.60
20376;DHT22;10347;51.828;6.466;2022-07-18T08:35:32;23.70;93.60
20376;DHT22;10347;51.828;6.466;2022-07-18T08:37:58;23.80;93.60
20376;DHT22;10347;51.828;6.466;2022-07-18T08:40:24;23.90;93.40
20376;DHT22;10347;51.828;6.466;2022-07-18T08:42:52;24.00;93.10
20376;DHT22;10347;51.828;6.466;2022-07-18T08:45:23;24.10;93.10
20376;DHT22;10347;51.828;6.466;2022-07-18T08:47:50;24.20;92.80
20376;DHT22;10347;51.828;6.466;2022-07-18T08:50:16;24.30;92.80
20376;DHT22;10347;51.828;6.466;2022-07-18T08:52:42;24.40;92.60
20376;DHT22;10347;51.828;6.466;2022-07-18T08:55:09;24.50;92.40
20376;DHT22;10347;51.828;6.466;2022-07-18T08:57:35;24.60;92.00
20376;DHT22;10347;51.828;6.466;2022-07-18T09:00:04;24.70;91.80
20376;DHT22;10347;51.828;6.466;2022-07-18T09:02:29;24.80;91.60
20376;DHT22;10347;51.828;6.466;2022-07-18T09:04:55;24.80;91.70
20376;DHT22;10347;51.828;6.466;2022-07-18T09:07:26;25.00;91.70
20376;DHT22;10347;51.828;6.466;2022-07-18T09:09:54;25.10;91.10
20376;DHT22;10347;51.828;6.466;2022-07-18T09:12:20;25.20;91.20
20376;DHT22;10347;51.828;6.466;2022-07-18T09:14:46;25.30;91.00
20376;DHT22;10347;51.828;6.466;2022-07-18T09:17:26;25.40;90.70
20376;DHT22;10347;51.828;6.466;2022-07-18T09:20:05;25.50;88.90
20376;DHT22;10347;51.828;6.466;2022-07-18T09:22:35;25.60;87.50
20376;DHT22;10347;51.828;6.466;2022-07-18T09:25:07;25.70;88.30
20376;DHT22;10347;51.828;6.466;2022-07-18T09:32:37;26.10;84.70
20376;DHT22;10347;51.828;6.466;2022-07-18T09:37:33;26.30;83.60
20376;DHT22;10347;51.828;6.466;2022-07-18T09:40:17;26.40;83.20
20376;DHT22;10347;51.828;6.466;2022-07-18T09:42:48;26.50;80.10
20376;DHT22;10347;51.828;6.466;2022-07-18T09:45:13;26.50;81.60
20376;DHT22;10347;51.828;6.466;2022-07-18T09:47:59;26.70;80.90
20376;DHT22;10347;51.828;6.466;2022-07-18T09:51:12;26.80;78.30
20376;DHT22;10347;51.828;6.466;2022-07-18T09:53:20;26.90;80.40
20376;DHT22;10347;51.828;6.466;2022-07-18T09:55:50;27.00;78.90
20376;DHT22;10347;51.828;6.466;2022-07-18T09:58:21;27.10;79.60
20376;DHT22;10347;51.828;6.466;2022-07-18T10:00:48;27.20;77.60
20376;DHT22;10347;51.828;6.466;2022-07-18T10:03:14;27.30;77.10
20376;DHT22;10347;51.828;6.466;2022-07-18T10:05:41;27.40;75.30
20376;DHT22;10347;51.828;6.466;2022-07-18T10:08:12;27.50;74.70
20376;DHT22;10347;51.828;6.466;2022-07-18T10:10:40;27.60;74.50
20376;DHT22;10347;51.828;6.466;2022-07-18T10:13:06;27.70;74.40
20376;DHT22;10347;51.828;6.466;2022-07-18T10:15:35;27.80;74.60
20376;DHT22;10347;51.828;6.466;2022-07-18T10:18:02;27.90;74.00
20376;DHT22;10347;51.828;6.466;2022-07-18T10:20:32;28.00;73.20
20376;DHT22;10347;51.828;6.466;2022-07-18T10:23:07;28.00;72.40
20376;DHT22;10347;51.828;6.466;2022-07-18T10:25:35;28.10;72.40
20376;DHT22;10347;51.828;6.466;2022-07-18T10:28:08;28.20;72.20
20376;DHT22;10347;51.828;6.466;2022-07-18T10:33:05;28.40;70.60
20376;DHT22;10347;51.828;6.466;2022-07-18T10:38:27;28.60;68.90
20376;DHT22;10347;51.828;6.466;2022-07-18T10:43:35;28.80;68.30
20376;DHT22;10347;51.828;6.466;2022-07-18T10:46:03;28.90;69.80
20376;DHT22;10347;51.828;6.466;2022-07-18T10:51:11;29.10;67.10
20376;DHT22;10347;51.828;6.466;2022-07-18T10:53:56;29.20;65.50
20376;DHT22;10347;51.828;6.466;2022-07-18T10:58:58;29.30;66.00
20376;DHT22;10347;51.828;6.466;2022-07-18T11:01:25;29.30;65.40
20376;DHT22;10347;51.828;6.466;2022-07-18T11:04:26;29.40;64.90
20376;DHT22;10347;51.828;6.466;2022-07-18T11:06:56;29.50;62.10
20376;DHT22;10347;51.828;6.466;2022-07-18T11:09:47;29.60;63.50
20376;DHT22;10347;51.828;6.466;2022-07-18T11:20:29;30.00;56.70
20376;DHT22;10347;51.828;6.466;2022-07-18T11:22:56;30.10;58.10
20376;DHT22;10347;51.828;6.466;2022-07-18T11:25:25;30.10;59.50
20376;DHT22;10347;51.828;6.466;2022-07-18T11:27:52;30.20;58.70
20376;DHT22;10347;51.828;6.466;2022-07-18T11:30:18;30.30;59.20
20376;DHT22;10347;51.828;6.466;2022-07-18T11:32:44;30.40;59.30
20376;DHT22;10347;51.828;6.466;2022-07-18T11:35:12;30.40;58.80
20376;DHT22;10347;51.828;6.466;2022-07-18T11:37:37;30.50;58.50
20376;DHT22;10347;51.828;6.466;2022-07-18T11:40:07;30.50;58.50
20376;DHT22;10347;51.828;6.466;2022-07-18T11:42:40;30.50;56.80
20376;DHT22;10347;51.828;6.466;2022-07-18T11:45:09;30.60;55.20
20376;DHT22;10347;51.828;6.466;2022-07-18T11:47:40;30.60;56.80
20376;DHT22;10347;51.828;6.466;2022-07-18T11:50:10;30.70;56.40
20376;DHT22;10347;51.828;6.466;2022-07-18T11:52:35;30.70;57.30
20376;DHT22;10347;51.828;6.466;2022-07-18T11:55:02;30.80;57.40
20376;DHT22;10347;51.828;6.466;2022-07-18T11:57:30;30.80;57.50
20376;DHT22;10347;51.828;6.466;2022-07-18T11:59:57;30.90;57.50
20376;DHT22;10347;51.828;6.466;2022-07-18T12:05:34;31.10;55.20
20376;DHT22;10347;51.828;6.466;2022-07-18T12:08:00;31.10;56.10
20376;DHT22;10347;51.828;6.466;2022-07-18T12:10:25;31.20;56.90
20376;DHT22;10347;51.828;6.466;2022-07-18T12:12:51;31.30;56.80
20376;DHT22;10347;51.828;6.466;2022-07-18T12:15:18;31.30;55.80
20376;DHT22;10347;51.828;6.466;2022-07-18T12:17:46;31.40;55.90
20376;DHT22;10347;51.828;6.466;2022-07-18T12:20:17;31.40;56.00
20376;DHT22;10347;51.828;6.466;2022-07-18T12:25:41;31.50;53.60
20376;DHT22;10347;51.828;6.466;2022-07-18T12:28:16;31.60;54.60
20376;DHT22;10347;51.828;6.466;2022-07-18T12:30:42;31.60;54.30
20376;DHT22;10347;51.828;6.466;2022-07-18T12:33:08;31.70;54.50
20376;DHT22;10347;51.828;6.466;2022-07-18T12:35:35;31.70;54.30
20376;DHT22;10347;51.828;6.466;2022-07-18T12:38:15;31.80;53.90
20376;DHT22;10347;51.828;6.466;2022-07-18T12:43:36;31.90;54.00
20376;DHT22;10347;51.828;6.466;2022-07-18T12:46:03;32.00;54.10
20376;DHT22;10347;51.828;6.466;2022-07-18T12:48:30;32.10;53.50
20376;DHT22;10347;51.828;6.466;2022-07-18T12:50:56;32.10;52.60
20376;DHT22;10347;51.828;6.466;2022-07-18T12:53:23;32.20;52.70
20376;DHT22;10347;51.828;6.466;2022-07-18T12:55:48;32.20;52.60
20376;DHT22;10347;51.828;6.466;2022-07-18T12:58:14;32.20;52.80
20376;DHT22;10347;51.828;6.466;2022-07-18T13:00:40;32.30;52.20
20376;DHT22;10347;51.828;6.466;2022-07-18T13:03:05;32.30;52.80
20376;DHT22;10347;51.828;6.466;2022-07-18T13:05:31;32.40;52.20
20376;DHT22;10347;51.828;6.466;2022-07-18T13:07:57;32.40;52.20
20376;DHT22;10347;51.828;6.466;2022-07-18T13:10:23;32.40;51.90
20376;DHT22;10347;51.828;6.466;2022-07-18T13:12:49;32.50;52.00
20376;DHT22;10347;51.828;6.466;2022-07-18T13:15:14;32.60;52.10
20376;DHT22;10347;51.828;6.466;2022-07-18T13:17:40;32.60;51.40
20376;DHT22;10347;51.828;6.466;2022-07-18T13:20:06;32.70;50.90
20376;DHT22;10347;51.828;6.466;2022-07-18T13:22:32;32.70;50.40
20376;DHT22;10347;51.828;6.466;2022-07-18T13:25:07;32.80;51.60
20376;DHT22;10347;51.828;6.466;2022-07-18T13:27:34;32.80;50.80
20376;DHT22;10347;51.828;6.466;2022-07-18T13:30:00;32.80;51.50
20376;DHT22;10347;51.828;6.466;2022-07-18T13:32:27;32.90;51.00
20376;DHT22;10347;51.828;6.466;2022-07-18T13:34:53;33.00;50.30
20376;DHT22;10347;51.828;6.466;2022-07-18T13:37:19;33.00;50.20
20376;DHT22;10347;51.828;6.466;2022-07-18T13:39:44;33.00;49.80
20376;DHT22;10347;51.828;6.466;2022-07-18T13:42:10;33.10;49.20
20376;DHT22;10347;51.828;6.466;2022-07-18T13:44:35;33.10;49.70
20376;DHT22;10347;51.828;6.466;2022-07-18T13:47:01;33.20;49.00
20376;DHT22;10347;51.828;6.466;2022-07-18T13:49:27;33.30;49.30
20376;DHT22;10347;51.828;6.466;2022-07-18T13:51:53;33.30;48.10
20376;DHT22;10347;51.828;6.466;2022-07-18T13:54:18;33.30;48.60
20376;DHT22;10347;51.828;6.466;2022-07-18T13:56:44;33.30;47.40
20376;DHT22;10347;51.828;6.466;2022-07-18T13:59:10;33.30;46.90
20376;DHT22;10347;51.828;6.466;2022-07-18T14:01:36;33.40;46.40
20376;DHT22;10347;51.828;6.466;2022-07-18T14:04:01;33.40;46.30
20376;DHT22;10347;51.828;6.466;2022-07-18T14:06:27;33.40;46.80
20376;DHT22;10347;51.828;6.466;2022-07-18T14:08:53;33.40;47.30
20376;DHT22;10347;51.828;6.466;2022-07-18T14:11:18;33.50;48.40
20376;DHT22;10347;51.828;6.466;2022-07-18T14:13:44;33.50;48.70
20376;DHT22;10347;51.828;6.466;2022-07-18T14:16:11;33.60;48.20
20376;DHT22;10347;51.828;6.466;2022-07-18T14:18:36;33.60;48.20
20376;DHT22;10347;51.828;6.466;2022-07-18T14:21:02;33.70;48.20
20376;DHT22;10347;51.828;6.466;2022-07-18T14:23:27;33.70;47.70
20376;DHT22;10347;51.828;6.466;2022-07-18T14:25:53;33.70;47.60
20376;DHT22;10347;51.828;6.466;2022-07-18T14:28:19;33.70;47.70
20376;DHT22;10347;51.828;6.466;2022-07-18T14:30:44;33.70;48.10
20376;DHT22;10347;51.828;6.466;2022-07-18T14:33:10;33.80;48.10
20376;DHT22;10347;51.828;6.466;2022-07-18T14:35:35;33.80;49.30
20376;DHT22;10347;51.828;6.466;2022-07-18T14:38:01;33.90;48.40
20376;DHT22;10347;51.828;6.466;2022-07-18T14:40:27;34.00;48.50
20376;DHT22;10347;51.828;6.466;2022-07-18T14:42:52;34.00;48.20
20376;DHT22;10347;51.828;6.466;2022-07-18T14:45:18;34.10;47.70
20376;DHT22;10347;51.828;6.466;2022-07-18T14:47:43;34.20;47.40
20376;DHT22;10347;51.828;6.466;2022-07-18T14:50:09;34.20;47.30
20376;DHT22;10347;51.828;6.466;2022-07-18T14:52:36;34.20;47.60
20376;DHT22;10347;51.828;6.466;2022-07-18T14:55:03;34.20;47.60
20376;DHT22;10347;51.828;6.466;2022-07-18T14:57:29;34.30;47.50
20376;DHT22;10347;51.828;6.466;2022-07-18T14:59:54;34.30;47.50
20376;DHT22;10347;51.828;6.466;2022-07-18T15:02:20;34.40;48.40
20376;DHT22;10347;51.828;6.466;2022-07-18T15:04:46;34.50;47.90
20376;DHT22;10347;51.828;6.466;2022-07-18T15:07:11;34.50;48.10
20376;DHT22;10347;51.828;6.466;2022-07-18T15:09:37;34.50;48.40
20376;DHT22;10347;51.828;6.466;2022-07-18T15:12:03;34.50;48.60
20376;DHT22;10347;51.828;6.466;2022-07-18T15:14:29;34.60;48.10
20376;DHT22;10347;51.828;6.466;2022-07-18T15:16:54;34.60;47.50
20376;DHT22;10347;51.828;6.466;2022-07-18T15:19:20;34.70;47.70
20376;DHT22;10347;51.828;6.466;2022-07-18T15:21:45;34.80;47.80
20376;DHT22;10347;51.828;6.466;2022-07-18T15:24:11;34.80;47.70
20376;DHT22;10347;51.828;6.466;2022-07-18T15:26:37;34.80;47.70
20376;DHT22;10347;51.828;6.466;2022-07-18T15:29:02;34.80;46.70
20376;DHT22;10347;51.828;6.466;2022-07-18T15:31:28;34.90;47.30
20376;DHT22;10347;51.828;6.466;2022-07-18T15:33:53;34.90;47.10
20376;DHT22;10347;51.828;6.466;2022-07-18T15:36:20;34.90;46.60
20376;DHT22;10347;51.828;6.466;2022-07-18T15:38:46;34.90;47.20
20376;DHT22;10347;51.828;6.466;2022-07-18T15:41:12;34.90;46.80
20376;DHT22;10347;51.828;6.466;2022-07-18T15:43:39;35.00;46.60
20376;DHT22;10347;51.828;6.466;2022-07-18T15:46:05;35.10;46.40
20376;DHT22;10347;51.828;6.466;2022-07-18T15:48:31;35.10;46.90
20376;DHT22;10347;51.828;6.466;2022-07-18T15:50:57;35.20;46.40
20376;DHT22;10347;51.828;6.466;2022-07-18T15:53:22;35.30;46.20
20376;DHT22;10347;51.828;6.466;2022-07-18T15:55:48;35.20;45.90
20376;DHT22;10347;51.828;6.466;2022-07-18T15:58:14;35.30;45.60
20376;DHT22;10347;51.828;6.466;2022-07-18T16:00:39;35.30;45.70
20376;DHT22;10347;51.828;6.466;2022-07-18T16:03:05;35.30;45.30
20376;DHT22;10347;51.828;6.466;2022-07-18T16:05:30;35.30;45.30